Time;durP1;ratioP1;P1;durP2;ratioP2;P2;SDS_P1;SDS_P2;PMS_P1;PMS_P2;Temp;Humidity;BMP_temperature;BMP_pressure;BME280_temperature;BME280_humidity;BME280_pressure;Samples;Min_cycle;Max_cycle;Signal;HPM_P1;HPM_P2
2021/08/17 00:00:27;;;;;;;11.65;2.65;;;;;;;;;;5010769;28;20390;-54
2021/08/17 00:02:54;;;;;;;8.73;2.80;;;;;;;;;;5008448;28;20057;-55
2021/08/17 00:05:21;;;;;;;7.45;2.38;;;;;;;;;;5001901;28;20482;-54
2021/08/17 00:07:48;;;;;;;7.47;2.67;;;;;;;;;;5009802;28;20042;-54
2021/08/17 00:10:15;;;;;;;4.82;2.00;;;;;;;;;;5011257;28;20405;-55
2021/08/17 00:12:42;;;;;;;4.13;2.42;;;;;;;;;;5010920;28;20037;-55
2021/08/17 00:15:09;;;;;;;6.75;2.70;;;;;;;;;;5009689;28;20049;-55
2021/08/17 00:17:35;;;;;;;4.78;3.05;;;;;;;;;;4998779;28;20109;-54
2021/08/17 00:20:03;;;;;;;5.80;2.55;;;;;;;;;;5005424;28;20497;-54
2021/08/17 00:22:31;;;;;;;7.95;2.40;;;;;;;;;;5001467;28;20445;-54
2021/08/17 00:24:58;;;;;;;7.97;2.60;;;;;;;;;;5004828;28;20043;-54
2021/08/17 00:27:25;;;;;;;8.43;2.40;;;;;;;;;;5005534;28;20052;-55
2021/08/17 00:29:51;;;;;;;6.90;2.85;;;;;;;;;;5002753;28;20050;-54
2021/08/17 00:32:18;;;;;;;8.25;3.90;;;;;;;;;;5009102;28;20045;-54
2021/08/17 00:34:45;;;;;;;6.85;2.17;;;;;;;;;;5004777;28;20112;-54
2021/08/17 00:37:13;;;;;;;13.90;3.30;;;;;;;;;;5006060;28;20054;-54
2021/08/17 00:39:39;;;;;;;5.45;2.28;;;;;;;;;;5009813;28;20133;-54
2021/08/17 00:42:07;;;;;;;4.55;2.58;;;;;;;;;;5010746;28;20049;-54
2021/08/17 00:44:34;;;;;;;5.95;1.95;;;;;;;;;;5005754;28;20096;-54
2021/08/17 00:47:01;;;;;;;5.28;1.92;;;;;;;;;;4996675;28;20050;-54
2021/08/17 00:49:28;;;;;;;5.25;2.42;;;;;;;;;;5010648;28;20066;-54
2021/08/17 00:51:55;;;;;;;4.93;2.78;;;;;;;;;;5008849;28;20034;-54
2021/08/17 00:54:22;;;;;;;11.57;2.40;;;;;;;;;;5007887;28;20042;-54
2021/08/17 00:56:49;;;;;;;9.68;3.03;;;;;;;;;;5006441;28;20423;-55
2021/08/17 00:59:16;;;;;;;7.07;2.03;;;;;;;;;;5003244;28;20422;-54
2021/08/17 01:01:42;;;;;;;6.32;1.95;;;;;;;;;;5012193;28;20041;-55
2021/08/17 01:04:12;;;;;;;9.60;3.60;;;;;;;;;;5009899;28;20069;-54
2021/08/17 01:06:39;;;;;;;12.98;2.30;;;;;;;;;;5009572;28;20549;-54
2021/08/17 01:09:07;;;;;;;7.97;2.65;;;;;;;;;;5005995;28;20039;-54
2021/08/17 01:11:35;;;;;;;3.95;1.77;;;;;;;;;;5009993;28;20038;-54
2021/08/17 01:14:02;;;;;;;6.38;2.47;;;;;;;;;;4999013;28;20061;-54
2021/08/17 01:16:29;;;;;;;8.80;2.80;;;;;;;;;;5003821;28;20099;-54
2021/08/17 01:18:55;;;;;;;6.03;2.30;;;;;;;;;;5008378;28;20514;-55
2021/08/17 01:21:22;;;;;;;6.28;2.33;;;;;;;;;;5004576;28;20383;-54
2021/08/17 01:23:49;;;;;;;2.95;1.88;;;;;;;;;;5007234;28;20568;-54
2021/08/17 01:26:16;;;;;;;12.23;3.85;;;;;;;;;;5010471;28;20607;-55
2021/08/17 01:28:43;;;;;;;3.60;1.73;;;;;;;;;;5009902;28;20542;-55
2021/08/17 01:31:10;;;;;;;4.82;2.03;;;;;;;;;;5009828;28;20923;-55
2021/08/17 01:33:37;;;;;;;7.75;2.63;;;;;;;;;;5003923;28;20089;-54
2021/08/17 01:36:04;;;;;;;5.68;2.38;;;;;;;;;;5011508;28;20363;-55
2021/08/17 01:38:31;;;;;;;8.15;2.92;;;;;;;;;;4995378;28;20061;-55
2021/08/17 01:40:58;;;;;;;4.97;2.45;;;;;;;;;;5007559;28;20425;-54
2021/08/17 01:43:24;;;;;;;6.60;2.85;;;;;;;;;;5009609;28;20044;-55
2021/08/17 01:45:58;;;;;;;6.05;1.90;;;;;;;;;;5002368;28;20442;-55
2021/08/17 01:48:26;;;;;;;11.93;2.58;;;;;;;;;;5002911;28;20111;-55
2021/08/17 01:50:53;;;;;;;3.80;2.10;;;;;;;;;;5009539;28;20391;-54
2021/08/17 01:53:21;;;;;;;4.70;2.97;;;;;;;;;;5009670;28;20466;-54
2021/08/17 01:55:47;;;;;;;7.50;2.10;;;;;;;;;;4997406;28;20056;-54
2021/08/17 01:58:14;;;;;;;6.70;2.65;;;;;;;;;;5010356;28;20040;-54
2021/08/17 02:00:43;;;;;;;8.13;3.05;;;;;;;;;;5009429;28;20160;-53
2021/08/17 02:03:10;;;;;;;7.53;2.60;;;;;;;;;;4999663;28;20465;-55
2021/08/17 02:05:37;;;;;;;8.38;3.47;;;;;;;;;;5004588;28;20133;-54
2021/08/17 02:08:04;;;;;;;4.53;1.98;;;;;;;;;;5006983;28;20124;-54
2021/08/17 02:10:30;;;;;;;7.38;3.00;;;;;;;;;;4997218;28;20042;-54
2021/08/17 02:12:57;;;;;;;8.40;3.00;;;;;;;;;;5002844;28;20374;-55
2021/08/17 02:15:24;;;;;;;6.45;2.55;;;;;;;;;;5009778;28;20049;-54
2021/08/17 02:17:51;;;;;;;7.05;2.45;;;;;;;;;;5003558;28;20097;-54
2021/08/17 02:20:19;;;;;;;5.43;2.50;;;;;;;;;;5019354;28;20058;-55
2021/08/17 02:22:45;;;;;;;7.13;2.45;;;;;;;;;;5010106;28;20092;-56
2021/08/17 02:25:13;;;;;;;3.95;2.38;;;;;;;;;;5007960;28;20057;-54
2021/08/17 02:27:39;;;;;;;6.35;1.77;;;;;;;;;;4995133;28;20037;-54
2021/08/17 02:30:07;;;;;;;5.85;1.98;;;;;;;;;;5007804;28;20470;-55
2021/08/17 02:32:33;;;;;;;8.32;2.67;;;;;;;;;;5008644;28;20033;-54
2021/08/17 02:35:01;;;;;;;10.60;2.05;;;;;;;;;;4995831;28;20085;-54
2021/08/17 02:37:27;;;;;;;4.95;1.90;;;;;;;;;;5005187;28;20405;-54
2021/08/17 02:39:54;;;;;;;7.80;2.58;;;;;;;;;;5005125;28;20069;-54
2021/08/17 02:42:21;;;;;;;5.60;1.55;;;;;;;;;;5008310;28;20065;-55
2021/08/17 02:44:47;;;;;;;5.45;2.22;;;;;;;;;;5008099;28;20169;-55
2021/08/17 02:47:14;;;;;;;4.60;2.00;;;;;;;;;;4998280;28;20034;-55
2021/08/17 02:49:41;;;;;;;5.45;1.75;;;;;;;;;;5005627;28;20080;-54
2021/08/17 02:52:08;;;;;;;5.30;1.58;;;;;;;;;;5006820;28;20038;-54
2021/08/17 02:54:35;;;;;;;6.43;1.88;;;;;;;;;;5008008;28;20042;-54
2021/08/17 02:57:03;;;;;;;3.33;2.80;;;;;;;;;;5007493;28;20096;-55
2021/08/17 02:59:31;;;;;;;7.40;2.38;;;;;;;;;;5009129;28;20459;-54
2021/08/17 03:01:57;;;;;;;14.25;1.80;;;;;;;;;;5007652;28;20034;-55
2021/08/17 03:04:25;;;;;;;4.00;1.58;;;;;;;;;;5008257;28;20046;-54
2021/08/17 03:06:52;;;;;;;3.22;2.17;;;;;;;;;;5008357;28;20046;-55
2021/08/17 03:09:18;;;;;;;9.25;2.65;;;;;;;;;;5006164;28;20045;-54
2021/08/17 03:11:45;;;;;;;3.95;2.38;;;;;;;;;;5009447;28;20042;-55
2021/08/17 03:14:12;;;;;;;5.85;2.30;;;;;;;;;;5004341;28;20545;-55
2021/08/17 03:16:39;;;;;;;6.10;2.50;;;;;;;;;;5006902;28;20466;-55
2021/08/17 03:19:06;;;;;;;7.88;2.13;;;;;;;;;;5008470;28;20132;-55
2021/08/17 03:21:33;;;;;;;5.53;2.28;;;;;;;;;;5007487;28;20061;-55
2021/08/17 03:24:00;;;;;;;5.30;1.88;;;;;;;;;;5004708;28;20027;-55
2021/08/17 03:26:27;;;;;;;3.10;1.92;;;;;;;;;;5004936;28;20034;-55
2021/08/17 03:28:54;;;;;;;5.82;2.05;;;;;;;;;;5006893;28;20045;-55
2021/08/17 03:31:21;;;;;;;9.73;2.28;;;;;;;;;;5010484;28;20060;-57
2021/08/17 03:33:48;;;;;;;5.18;2.22;;;;;;;;;;5007210;28;20124;-55
2021/08/17 03:36:14;;;;;;;5.05;2.25;;;;;;;;;;4995408;28;20136;-55
2021/08/17 03:38:41;;;;;;;6.75;2.35;;;;;;;;;;5012154;28;20058;-55
2021/08/17 03:41:08;;;;;;;6.53;2.53;;;;;;;;;;5006288;28;20497;-55
2021/08/17 03:43:36;;;;;;;6.32;2.78;;;;;;;;;;5014147;28;20134;-55
2021/08/17 03:46:04;;;;;;;5.93;2.60;;;;;;;;;;5011575;28;20038;-55
2021/08/17 03:48:32;;;;;;;4.95;1.83;;;;;;;;;;5012575;28;20048;-55
2021/08/17 03:50:59;;;;;;;8.77;1.83;;;;;;;;;;5012812;28;20034;-55
2021/08/17 03:53:26;;;;;;;11.23;2.78;;;;;;;;;;5010462;28;20041;-55
2021/08/17 03:55:53;;;;;;;5.80;2.47;;;;;;;;;;4995636;28;20244;-55
2021/08/17 03:58:20;;;;;;;7.78;2.13;;;;;;;;;;5010597;28;20038;-55
2021/08/17 04:00:47;;;;;;;7.45;2.10;;;;;;;;;;5012530;28;20041;-55
2021/08/17 04:03:14;;;;;;;3.58;2.47;;;;;;;;;;5008817;28;20050;-55
2021/08/17 04:05:40;;;;;;;8.32;2.83;;;;;;;;;;5009458;28;20089;-55
2021/08/17 04:08:08;;;;;;;8.68;2.13;;;;;;;;;;5007118;28;20470;-55
2021/08/17 04:10:34;;;;;;;9.95;2.53;;;;;;;;;;5009433;28;20521;-55
2021/08/17 04:13:01;;;;;;;4.82;1.63;;;;;;;;;;5000829;28;20091;-55
2021/08/17 04:15:28;;;;;;;4.32;2.45;;;;;;;;;;5001889;28;20065;-55
2021/08/17 04:17:55;;;;;;;10.38;1.95;;;;;;;;;;5006644;28;20045;-55
2021/08/17 04:20:22;;;;;;;4.90;2.72;;;;;;;;;;5009507;28;20117;-55
2021/08/17 04:22:49;;;;;;;4.25;2.45;;;;;;;;;;5005950;28;20042;-55
2021/08/17 04:25:16;;;;;;;8.35;2.50;;;;;;;;;;4998695;28;20046;-55
2021/08/17 04:27:43;;;;;;;5.47;2.40;;;;;;;;;;5012962;28;20081;-55
2021/08/17 04:30:09;;;;;;;9.73;3.85;;;;;;;;;;5010102;28;20034;-55
2021/08/17 04:32:36;;;;;;;8.52;3.03;;;;;;;;;;5001504;28;20052;-55
2021/08/17 04:35:03;;;;;;;5.63;2.58;;;;;;;;;;5004749;28;20046;-55
2021/08/17 04:37:30;;;;;;;6.38;4.13;;;;;;;;;;4998481;28;20069;-55
2021/08/17 04:39:57;;;;;;;4.10;2.33;;;;;;;;;;5022223;28;20056;-55
2021/08/17 04:42:24;;;;;;;6.60;2.83;;;;;;;;;;5009287;28;20100;-55
2021/08/17 04:44:50;;;;;;;8.75;3.55;;;;;;;;;;5007871;28;20038;-55
2021/08/17 04:47:17;;;;;;;9.70;2.92;;;;;;;;;;5005601;28;20490;-55
2021/08/17 04:49:44;;;;;;;7.55;3.08;;;;;;;;;;5010206;28;20469;-55
2021/08/17 04:52:11;;;;;;;5.88;2.78;;;;;;;;;;5010857;28;20042;-56
2021/08/17 04:54:38;;;;;;;6.05;2.80;;;;;;;;;;5009620;28;20046;-55
2021/08/17 04:57:05;;;;;;;7.75;2.92;;;;;;;;;;5010415;28;20030;-54
2021/08/17 04:59:32;;;;;;;7.72;3.40;;;;;;;;;;5003038;28;20097;-55
2021/08/17 05:01:58;;;;;;;4.47;3.15;;;;;;;;;;5002814;28;20053;-55
2021/08/17 05:04:26;;;;;;;4.05;2.85;;;;;;;;;;4995537;28;20038;-55
2021/08/17 05:06:52;;;;;;;5.43;2.45;;;;;;;;;;5012366;28;20037;-56
2021/08/17 05:09:19;;;;;;;10.40;2.88;;;;;;;;;;5019029;28;20049;-55
2021/08/17 05:11:46;;;;;;;6.63;2.38;;;;;;;;;;5001735;28;20126;-55
2021/08/17 05:14:13;;;;;;;9.70;2.95;;;;;;;;;;5008797;28;20073;-55
2021/08/17 05:16:39;;;;;;;13.30;4.40;;;;;;;;;;4994530;28;20034;-55
2021/08/17 05:19:06;;;;;;;6.00;2.78;;;;;;;;;;5007309;28;20080;-55
2021/08/17 05:21:33;;;;;;;10.40;4.32;;;;;;;;;;5009770;28;20502;-55
2021/08/17 05:24:00;;;;;;;6.32;3.20;;;;;;;;;;5000025;28;20054;-55
2021/08/17 05:26:26;;;;;;;11.15;3.83;;;;;;;;;;5005230;28;20078;-57
2021/08/17 05:28:53;;;;;;;10.40;3.40;;;;;;;;;;4993475;28;20047;-58
2021/08/17 05:31:20;;;;;;;9.32;4.10;;;;;;;;;;5006300;28;20379;-57
2021/08/17 05:33:46;;;;;;;6.78;3.17;;;;;;;;;;5009305;28;20042;-57
2021/08/17 05:36:13;;;;;;;6.10;3.58;;;;;;;;;;5010364;28;20046;-57
2021/08/17 05:38:40;;;;;;;5.28;2.78;;;;;;;;;;5008715;28;20054;-57
2021/08/17 05:41:06;;;;;;;6.22;2.55;;;;;;;;;;5004080;28;20120;-57
2021/08/17 05:43:33;;;;;;;10.57;4.55;;;;;;;;;;5005034;28;20046;-57
2021/08/17 05:46:07;;;;;;;9.52;3.40;;;;;;;;;;5009240;28;20368;-57
2021/08/17 05:48:38;;;;;;;8.77;2.75;;;;;;;;;;5009879;28;20034;-57
2021/08/17 05:51:05;;;;;;;7.07;4.10;;;;;;;;;;5007730;28;20038;-57
2021/08/17 05:53:32;;;;;;;6.63;3.72;;;;;;;;;;5007782;28;20038;-57
2021/08/17 05:55:58;;;;;;;9.13;3.85;;;;;;;;;;5001523;28;20046;-57
2021/08/17 05:58:25;;;;;;;8.48;3.75;;;;;;;;;;4999852;28;20050;-57
2021/08/17 06:00:52;;;;;;;10.65;2.67;;;;;;;;;;5009678;28;20049;-57
2021/08/17 06:03:19;;;;;;;8.10;3.45;;;;;;;;;;5005760;28;20443;-57
2021/08/17 06:05:46;;;;;;;5.28;2.95;;;;;;;;;;4997077;28;20077;-57
2021/08/17 06:08:13;;;;;;;6.43;3.38;;;;;;;;;;4999361;28;20054;-56
2021/08/17 06:10:39;;;;;;;5.95;3.58;;;;;;;;;;5000897;28;20034;-57
2021/08/17 06:13:06;;;;;;;9.27;2.75;;;;;;;;;;5000324;28;20038;-57
2021/08/17 06:15:33;;;;;;;7.05;3.17;;;;;;;;;;5008138;28;20064;-56
2021/08/17 06:18:04;;;;;;;7.47;2.83;;;;;;;;;;5009810;28;20046;-56
2021/08/17 06:20:32;;;;;;;6.63;2.92;;;;;;;;;;5007512;28;20099;-56
2021/08/17 06:22:58;;;;;;;7.82;3.67;;;;;;;;;;5009183;28;20777;-56
2021/08/17 06:25:26;;;;;;;7.05;3.67;;;;;;;;;;4994895;28;20042;-56
2021/08/17 06:27:52;;;;;;;9.88;3.58;;;;;;;;;;5008369;28;20065;-56
2021/08/17 06:30:20;;;;;;;7.45;2.88;;;;;;;;;;5008084;28;20042;-56
2021/08/17 06:32:55;;;;;;;6.75;2.63;;;;;;;;;;4996921;28;20406;-56
2021/08/17 06:35:22;;;;;;;6.45;2.38;;;;;;;;;;5003829;28;20046;-56
2021/08/17 06:37:49;;;;;;;5.85;2.40;;;;;;;;;;4991987;28;20516;-56
2021/08/17 06:40:17;;;;;;;8.30;2.65;;;;;;;;;;5010619;28;20157;-55
2021/08/17 06:42:43;;;;;;;6.68;2.47;;;;;;;;;;5007061;28;20037;-56
2021/08/17 06:45:10;;;;;;;6.97;2.80;;;;;;;;;;5006074;28;20050;-56
2021/08/17 06:47:47;;;;;;;4.85;2.25;;;;;;;;;;5006735;28;20430;-55
2021/08/17 06:50:34;;;;;;;8.48;2.88;;;;;;;;;;5008058;28;20061;-55
2021/08/17 06:53:01;;;;;;;7.78;2.17;;;;;;;;;;5010335;28;20352;-56
2021/08/17 06:55:28;;;;;;;6.10;3.13;;;;;;;;;;5007559;28;20076;-55
2021/08/17 06:57:54;;;;;;;4.82;2.30;;;;;;;;;;5008464;28;20137;-56
2021/08/17 07:00:22;;;;;;;4.10;1.80;;;;;;;;;;5002752;28;20065;-55
2021/08/17 07:02:49;;;;;;;6.65;2.47;;;;;;;;;;4998729;28;20479;-56
2021/08/17 07:05:29;;;;;;;5.10;1.90;;;;;;;;;;5010760;28;20041;-56
2021/08/17 07:07:56;;;;;;;5.80;1.52;;;;;;;;;;5007914;28;20034;-55
2021/08/17 07:10:23;;;;;;;8.52;2.15;;;;;;;;;;5007477;28;20037;-56
2021/08/17 07:13:09;;;;;;;5.32;2.03;;;;;;;;;;5000152;28;20078;-56
2021/08/17 07:15:36;;;;;;;8.88;2.47;;;;;;;;;;5012123;28;20046;-55
2021/08/17 07:18:03;;;;;;;8.85;2.42;;;;;;;;;;4995664;28;20523;-56
2021/08/17 07:20:30;;;;;;;5.85;2.22;;;;;;;;;;5004055;28;20057;-55
2021/08/17 07:22:57;;;;;;;8.38;1.88;;;;;;;;;;5001874;28;20065;-55
2021/08/17 07:25:24;;;;;;;4.70;1.77;;;;;;;;;;5011803;28;20682;-55
2021/08/17 07:27:51;;;;;;;9.93;2.78;;;;;;;;;;5009714;28;20038;-55
2021/08/17 07:30:18;;;;;;;5.00;1.48;;;;;;;;;;4996379;28;20034;-55
2021/08/17 07:32:46;;;;;;;4.60;2.00;;;;;;;;;;5005448;28;20085;-55
2021/08/17 07:35:15;;;;;;;7.15;1.75;;;;;;;;;;5002974;28;20091;-55
2021/08/17 07:37:42;;;;;;;7.75;1.95;;;;;;;;;;5012941;28;20042;-55
2021/08/17 07:40:10;;;;;;;7.60;2.22;;;;;;;;;;5007583;28;20463;-55
2021/08/17 07:42:36;;;;;;;4.93;2.17;;;;;;;;;;5000002;28;20052;-56
2021/08/17 07:45:04;;;;;;;4.80;2.08;;;;;;;;;;5004045;28;20041;-55
2021/08/17 07:47:31;;;;;;;6.05;2.45;;;;;;;;;;5012045;28;20117;-56
2021/08/17 07:49:58;;;;;;;8.48;1.70;;;;;;;;;;4996939;28;20046;-56
2021/08/17 07:52:25;;;;;;;4.50;1.60;;;;;;;;;;5008657;28;20478;-56
2021/08/17 07:54:51;;;;;;;11.52;1.90;;;;;;;;;;5010393;28;20157;-55
2021/08/17 07:57:18;;;;;;;4.95;1.65;;;;;;;;;;5013703;28;20549;-56
2021/08/17 07:59:45;;;;;;;6.55;2.15;;;;;;;;;;5006280;28;20057;-56
2021/08/17 08:02:12;;;;;;;3.63;1.98;;;;;;;;;;5011366;28;20050;-56
2021/08/17 08:04:39;;;;;;;4.53;1.58;;;;;;;;;;5009310;28;20120;-56
2021/08/17 08:07:06;;;;;;;3.60;1.63;;;;;;;;;;5012255;28;20073;-56
2021/08/17 08:09:33;;;;;;;4.80;1.92;;;;;;;;;;4999082;28;20045;-56
2021/08/17 08:11:59;;;;;;;7.30;1.60;;;;;;;;;;5007571;28;20046;-56
2021/08/17 08:14:26;;;;;;;6.05;1.13;;;;;;;;;;4997636;28;20038;-56
2021/08/17 08:16:56;;;;;;;7.90;1.45;;;;;;;;;;5005976;28;20751;-56
2021/08/17 08:19:23;;;;;;;5.45;1.70;;;;;;;;;;4999720;28;20064;-56
2021/08/17 08:21:50;;;;;;;5.72;1.60;;;;;;;;;;5012928;28;20053;-56
2021/08/17 08:24:17;;;;;;;1.75;1.05;;;;;;;;;;5007970;28;20036;-56
2021/08/17 08:26:44;;;;;;;2.33;1.20;;;;;;;;;;4995088;28;20038;-56
2021/08/17 08:29:11;;;;;;;3.35;1.10;;;;;;;;;;5004478;28;20479;-56
2021/08/17 08:31:38;;;;;;;6.53;1.35;;;;;;;;;;5001415;28;20038;-56
2021/08/17 08:34:05;;;;;;;4.03;1.42;;;;;;;;;;5000646;28;20157;-56
2021/08/17 08:36:32;;;;;;;6.13;1.10;;;;;;;;;;5006255;28;20049;-56
2021/08/17 08:38:59;;;;;;;5.43;1.50;;;;;;;;;;4995575;28;20050;-57
2021/08/17 08:41:26;;;;;;;6.43;1.20;;;;;;;;;;5002838;28;20225;-56
2021/08/17 08:43:53;;;;;;;3.97;1.15;;;;;;;;;;5003244;28;20091;-56
2021/08/17 08:46:20;;;;;;;3.17;0.95;;;;;;;;;;5003369;28;20034;-56
2021/08/17 08:48:51;;;;;;;4.68;1.15;;;;;;;;;;5005530;28;20042;-56
2021/08/17 08:51:19;;;;;;;2.65;1.25;;;;;;;;;;5009437;28;20037;-56
2021/08/17 08:54:05;;;;;;;2.15;1.10;;;;;;;;;;4995403;28;20049;-56
2021/08/17 08:56:32;;;;;;;5.65;1.08;;;;;;;;;;5005991;28;20076;-57
2021/08/17 08:58:59;;;;;;;3.40;1.23;;;;;;;;;;5008504;28;20524;-57
2021/08/17 09:01:25;;;;;;;3.72;1.00;;;;;;;;;;5003087;28;20113;-57
2021/08/17 09:03:53;;;;;;;2.33;1.20;;;;;;;;;;5000364;28;20041;-57
2021/08/17 09:06:32;;;;;;;2.30;1.05;;;;;;;;;;4995619;28;20495;-57
2021/08/17 09:09:05;;;;;;;4.88;1.30;;;;;;;;;;5004916;28;20042;-57
2021/08/17 09:11:32;;;;;;;1.35;1.00;;;;;;;;;;4996251;28;20435;-57
2021/08/17 09:14:18;;;;;;;1.60;1.10;;;;;;;;;;5011449;28;20038;-57
2021/08/17 09:16:46;;;;;;;4.22;1.00;;;;;;;;;;5007771;28;20129;-57
2021/08/17 09:19:22;;;;;;;2.58;1.40;;;;;;;;;;5001729;28;20066;-57
2021/08/17 09:21:49;;;;;;;2.28;1.02;;;;;;;;;;5001801;28;20038;-57
2021/08/17 09:24:25;;;;;;;1.40;1.00;;;;;;;;;;5003871;28;20046;-57
2021/08/17 09:26:51;;;;;;;4.15;0.95;;;;;;;;;;5009871;28;20172;-57
2021/08/17 09:29:27;;;;;;;2.55;0.90;;;;;;;;;;5004934;28;20517;-57
2021/08/17 09:31:55;;;;;;;1.70;1.20;;;;;;;;;;4998239;28;20045;-57
2021/08/17 09:34:27;;;;;;;4.13;1.10;;;;;;;;;;5005872;28;20034;-57
2021/08/17 09:36:54;;;;;;;1.88;1.00;;;;;;;;;;5008572;28;20096;-57
2021/08/17 09:39:29;;;;;;;1.13;1.00;;;;;;;;;;5009557;28;20077;-57
2021/08/17 09:42:09;;;;;;;3.65;1.23;;;;;;;;;;5010662;28;20061;-57
2021/08/17 09:44:36;;;;;;;2.25;1.05;;;;;;;;;;5009000;28;20125;-57
2021/08/17 09:47:03;;;;;;;2.80;1.20;;;;;;;;;;4999217;28;20034;-57
2021/08/17 09:49:30;;;;;;;3.50;1.13;;;;;;;;;;5007737;28;20121;-57
2021/08/17 09:51:58;;;;;;;3.15;1.05;;;;;;;;;;4995930;28;20422;-57
2021/08/17 09:54:26;;;;;;;4.45;0.90;;;;;;;;;;5022138;28;20103;-57
2021/08/17 09:57:00;;;;;;;1.42;0.82;;;;;;;;;;5015130;28;20057;-57
2021/08/17 09:59:28;;;;;;;1.00;0.90;;;;;;;;;;4992169;28;20049;-57
2021/08/17 10:01:56;;;;;;;2.00;0.85;;;;;;;;;;5003231;28;20092;-57
2021/08/17 10:04:23;;;;;;;3.35;0.80;;;;;;;;;;4997323;28;20131;-57
2021/08/17 10:06:50;;;;;;;1.42;0.95;;;;;;;;;;5000303;28;20050;-57
2021/08/17 10:09:18;;;;;;;2.83;0.50;;;;;;;;;;5003801;28;20046;-57
2021/08/17 10:11:45;;;;;;;0.40;0.40;;;;;;;;;;4993096;28;20034;-57
2021/08/17 10:14:15;;;;;;;1.00;0.45;;;;;;;;;;5002013;28;20074;-57
2021/08/17 10:16:43;;;;;;;0.80;0.40;;;;;;;;;;5001366;28;20038;-57
2021/08/17 10:19:11;;;;;;;3.05;0.40;;;;;;;;;;5008499;28;20104;-57
2021/08/17 10:21:40;;;;;;;0.60;0.60;;;;;;;;;;5004203;28;20522;-57
2021/08/17 10:24:26;;;;;;;0.40;0.40;;;;;;;;;;4995948;28;20061;-57
2021/08/17 10:27:12;;;;;;;1.95;0.40;;;;;;;;;;4995248;28;20035;-57
2021/08/17 10:29:50;;;;;;;1.27;0.47;;;;;;;;;;5002705;28;20049;-57
2021/08/17 10:32:35;;;;;;;0.40;0.40;;;;;;;;;;4995295;28;20073;-57
2021/08/17 10:35:02;;;;;;;0.40;0.40;;;;;;;;;;5001539;28;20034;-57
2021/08/17 10:37:30;;;;;;;0.60;0.50;;;;;;;;;;5004493;28;20462;-57
2021/08/17 10:39:57;;;;;;;0.73;0.38;;;;;;;;;;4994204;28;20128;-57
2021/08/17 10:42:25;;;;;;;3.70;0.40;;;;;;;;;;5000700;28;20121;-57
2021/08/17 10:44:53;;;;;;;0.68;0.38;;;;;;;;;;5007860;28;20108;-57
2021/08/17 10:47:31;;;;;;;1.23;0.40;;;;;;;;;;4992921;28;20372;-57
2021/08/17 10:49:58;;;;;;;0.82;0.40;;;;;;;;;;5002733;28;20085;-57
2021/08/17 10:52:33;;;;;;;1.88;0.40;;;;;;;;;;5008133;28;20393;-57
2021/08/17 10:55:18;;;;;;;0.50;0.40;;;;;;;;;;5002073;28;20046;-57
2021/08/17 10:57:53;;;;;;;0.40;0.40;;;;;;;;;;5003344;28;20538;-58
2021/08/17 11:00:40;;;;;;;0.40;0.40;;;;;;;;;;5004405;28;20053;-57
2021/08/17 11:03:07;;;;;;;0.95;0.40;;;;;;;;;;5018427;28;20066;-58
2021/08/17 11:05:50;;;;;;;0.40;0.40;;;;;;;;;;5007122;28;20041;-58
2021/08/17 11:08:32;;;;;;;0.57;0.43;;;;;;;;;;5004044;28;20050;-57
2021/08/17 11:10:59;;;;;;;0.40;0.40;;;;;;;;;;4999511;28;20384;-58
2021/08/17 11:13:26;;;;;;;1.20;0.40;;;;;;;;;;5003693;28;20136;-57
2021/08/17 11:16:09;;;;;;;0.30;0.30;;;;;;;;;;5008897;28;20038;-58
2021/08/17 11:18:54;;;;;;;0.45;0.45;;;;;;;;;;5008814;28;20046;-58
2021/08/17 11:21:44;;;;;;;0.40;0.40;;;;;;;;;;5000430;28;20108;-58
2021/08/17 11:24:11;;;;;;;2.60;0.40;;;;;;;;;;4988650;28;20082;-58
2021/08/17 11:26:39;;;;;;;2.08;0.40;;;;;;;;;;5008288;28;20092;-57
2021/08/17 11:29:05;;;;;;;0.80;0.30;;;;;;;;;;5009637;28;20045;-57
2021/08/17 11:31:42;;;;;;;0.80;0.40;;;;;;;;;;5009066;28;20561;-57
2021/08/17 11:34:11;;;;;;;2.88;0.60;;;;;;;;;;5005501;28;20038;-57
2021/08/17 11:36:38;;;;;;;1.33;0.40;;;;;;;;;;4995488;28;20085;-57
2021/08/17 11:39:22;;;;;;;1.52;0.40;;;;;;;;;;5007297;28;20077;-57
2021/08/17 11:41:49;;;;;;;2.63;0.40;;;;;;;;;;5007294;28;20034;-58
2021/08/17 11:44:16;;;;;;;0.73;0.40;;;;;;;;;;4992774;28;20129;-58
2021/08/17 11:46:43;;;;;;;1.17;0.40;;;;;;;;;;5002522;28;20074;-57
2021/08/17 11:49:20;;;;;;;1.27;0.40;;;;;;;;;;4993721;28;20113;-58
2021/08/17 11:51:47;;;;;;;0.40;0.40;;;;;;;;;;5000079;28;20616;-58
2021/08/17 11:54:14;;;;;;;0.50;0.40;;;;;;;;;;5003707;28;20065;-58
2021/08/17 11:56:41;;;;;;;0.88;0.50;;;;;;;;;;5007892;28;20077;-58
2021/08/17 11:59:08;;;;;;;0.47;0.30;;;;;;;;;;5001035;28;20046;-57
2021/08/17 12:01:35;;;;;;;0.32;0.30;;;;;;;;;;5001895;28;20038;-57
2021/08/17 12:04:08;;;;;;;0.40;0.30;;;;;;;;;;5006959;28;20517;-58
2021/08/17 12:06:35;;;;;;;1.75;0.30;;;;;;;;;;5008265;28;20128;-58
2021/08/17 12:09:20;;;;;;;0.30;0.30;;;;;;;;;;4995778;28;20430;-58
2021/08/17 12:11:57;;;;;;;1.85;0.40;;;;;;;;;;5000300;28;20518;-58
2021/08/17 12:14:24;;;;;;;1.15;0.30;;;;;;;;;;5005557;28;20038;-57
2021/08/17 12:16:54;;;;;;;0.30;0.30;;;;;;;;;;5011221;28;20049;-57
2021/08/17 12:19:21;;;;;;;0.55;0.40;;;;;;;;;;5009570;28;20077;-58
2021/08/17 12:21:49;;;;;;;2.33;0.40;;;;;;;;;;4999703;28;20042;-57
2021/08/17 12:24:22;;;;;;;0.40;0.30;;;;;;;;;;5011350;28;20498;-57
2021/08/17 12:27:00;;;;;;;0.57;0.30;;;;;;;;;;5009155;28;20120;-58
2021/08/17 12:29:37;;;;;;;0.40;0.38;;;;;;;;;;5010709;28;20097;-58
2021/08/17 12:32:24;;;;;;;0.30;0.30;;;;;;;;;;5011631;28;20459;-58
2021/08/17 12:34:52;;;;;;;0.75;0.30;;;;;;;;;;5009912;28;20099;-58
2021/08/17 12:37:25;;;;;;;0.30;0.30;;;;;;;;;;5007705;28;20046;-58
2021/08/17 12:39:54;;;;;;;1.45;0.30;;;;;;;;;;5006880;28;20039;-57
2021/08/17 12:42:20;;;;;;;0.40;0.20;;;;;;;;;;5009053;28;20050;-58
2021/08/17 12:44:49;;;;;;;0.30;0.30;;;;;;;;;;5013117;28;20130;-57
2021/08/17 12:47:19;;;;;;;0.30;0.30;;;;;;;;;;5008230;28;20168;-58
2021/08/17 12:50:03;;;;;;;0.20;0.20;;;;;;;;;;4999859;28;20561;-58
2021/08/17 12:52:31;;;;;;;2.50;0.40;;;;;;;;;;5008207;28;20411;-58
2021/08/17 12:55:07;;;;;;;0.90;0.30;;;;;;;;;;5009938;28;20037;-57
2021/08/17 12:57:36;;;;;;;0.55;0.30;;;;;;;;;;4993613;28;20499;-42
2021/08/17 13:00:03;;;;;;;1.48;0.57;;;;;;;;;;5008470;28;20069;-43
2021/08/17 13:02:30;;;;;;;0.30;0.30;;;;;;;;;;5005221;28;20077;-43
2021/08/17 13:04:57;;;;;;;0.20;0.20;;;;;;;;;;5002843;28;20092;-44
2021/08/17 13:07:24;;;;;;;0.28;0.28;;;;;;;;;;5010440;28;20049;-43
2021/08/17 13:09:51;;;;;;;0.22;0.22;;;;;;;;;;4992601;28;20038;-43
2021/08/17 13:12:18;;;;;;;1.58;0.22;;;;;;;;;;5015690;28;20034;-44
2021/08/17 13:14:45;;;;;;;0.20;0.20;;;;;;;;;;5019168;28;20121;-44
2021/08/17 13:17:11;;;;;;;1.27;0.22;;;;;;;;;;4998403;28;20470;-43
2021/08/17 13:19:38;;;;;;;0.30;0.30;;;;;;;;;;5005317;28;20049;-45
2021/08/17 13:22:05;;;;;;;0.20;0.20;;;;;;;;;;4992145;28;20034;-44
2021/08/17 13:24:32;;;;;;;1.85;0.30;;;;;;;;;;5003348;28;20073;-43
2021/08/17 13:26:58;;;;;;;0.20;0.20;;;;;;;;;;4999318;28;20133;-43
2021/08/17 13:29:25;;;;;;;0.30;0.30;;;;;;;;;;5012448;28;20441;-43
2021/08/17 13:31:52;;;;;;;0.88;0.20;;;;;;;;;;5008861;28;20088;-45
2021/08/17 13:34:21;;;;;;;3.92;0.20;;;;;;;;;;5001859;28;20517;-46
2021/08/17 13:36:49;;;;;;;0.20;0.20;;;;;;;;;;5002409;28;20050;-43
2021/08/17 13:39:16;;;;;;;2.30;0.30;;;;;;;;;;5000648;28;20129;-43
2021/08/17 13:41:42;;;;;;;0.40;0.40;;;;;;;;;;5010269;28;20562;-43
2021/08/17 13:44:09;;;;;;;1.52;0.30;;;;;;;;;;5005260;28;20399;-44
2021/08/17 13:46:37;;;;;;;0.20;0.20;;;;;;;;;;4998238;28;20565;-43
2021/08/17 13:49:03;;;;;;;0.55;0.30;;;;;;;;;;5000728;28;20375;-43
2021/08/17 13:51:31;;;;;;;0.73;0.20;;;;;;;;;;5003477;28;20462;-45
2021/08/17 13:53:57;;;;;;;0.20;0.20;;;;;;;;;;4993566;28;20435;-43
2021/08/17 13:56:24;;;;;;;0.52;0.30;;;;;;;;;;5005225;28;20050;-43
2021/08/17 13:58:51;;;;;;;1.50;0.30;;;;;;;;;;4996374;28;20041;-44
2021/08/17 14:01:18;;;;;;;0.68;0.30;;;;;;;;;;4999569;28;20077;-43
2021/08/17 14:03:46;;;;;;;0.20;0.20;;;;;;;;;;5003527;28;20038;-45
2021/08/17 14:06:13;;;;;;;0.93;0.30;;;;;;;;;;5002100;28;20123;-44
2021/08/17 14:08:43;;;;;;;2.80;0.55;;;;;;;;;;5008592;28;20070;-43
2021/08/17 14:11:10;;;;;;;0.73;0.28;;;;;;;;;;5008221;28;20033;-43
2021/08/17 14:13:37;;;;;;;3.08;0.30;;;;;;;;;;5010759;28;20092;-44
2021/08/17 14:16:04;;;;;;;0.30;0.30;;;;;;;;;;5007844;28;20046;-44
2021/08/17 14:18:32;;;;;;;0.30;0.30;;;;;;;;;;5003395;28;20411;-44
2021/08/17 14:21:00;;;;;;;0.30;0.30;;;;;;;;;;5008979;28;20038;-44
2021/08/17 14:23:31;;;;;;;0.25;0.20;;;;;;;;;;5008561;28;20045;-43
2021/08/17 14:26:02;;;;;;;1.02;0.30;;;;;;;;;;5008625;28;20486;-43
2021/08/17 14:28:29;;;;;;;1.45;0.35;;;;;;;;;;5004349;28;20080;-45
2021/08/17 14:30:55;;;;;;;0.30;0.30;;;;;;;;;;4993115;28;20498;-43
2021/08/17 14:33:22;;;;;;;1.63;0.30;;;;;;;;;;5001124;28;20038;-44
2021/08/17 14:35:49;;;;;;;0.30;0.20;;;;;;;;;;4999876;28;20064;-44
2021/08/17 14:38:16;;;;;;;1.45;0.30;;;;;;;;;;4996698;28;20487;-43
2021/08/17 14:40:43;;;;;;;0.20;0.20;;;;;;;;;;5002783;28;20511;-43
2021/08/17 14:43:10;;;;;;;1.27;0.20;;;;;;;;;;4995551;28;20042;-44
2021/08/17 14:45:40;;;;;;;2.50;0.25;;;;;;;;;;4999447;28;20085;-44
2021/08/17 14:48:07;;;;;;;0.80;0.30;;;;;;;;;;5004422;28;20045;-43
2021/08/17 14:50:34;;;;;;;1.40;0.30;;;;;;;;;;5008271;28;20069;-45